Time;durP1;ratioP1;P1;durP2;ratioP2;P2;SDS_P1;SDS_P2;PMS_P1;PMS_P2;Temp;Humidity;BMP_temperature;BMP_pressure;BME280_temperature;BME280_humidity;BME280_pressure;Samples;Min_cycle;Max_cycle;Signal;HPM_P1;HPM_P2
2023/05/20 00:05:24;;;;;;;;;;;;;;;;;;6052541;23;19933;-95
2023/05/20 00:07:50;;;;;;;;;;;;;;;;;;6128923;23;19995;-96
2023/05/20 00:10:16;;;;;;;;;;;;;;;;;;6130697;23;19916;-94
2023/05/20 00:18:38;;;;;;;;;;;;;;;;;;6126008;23;19927;-96
2023/05/20 00:24:13;;;;;;;;;;;;;;;;;;6103604;23;19945;-96
2023/05/20 00:26:42;;;;;;;;;;;;;;;;;;6131168;23;19952;-96
2023/05/20 00:32:19;;;;;;;;;;;;;;;;;;6154718;23;19967;-95
2023/05/20 00:37:37;;;;;;;;;;;;;;;;;;6122734;23;19924;-95
2023/05/20 00:45:58;;;;;;;;;;;;;;;;;;6081337;23;19917;-96
2023/05/20 00:48:24;;;;;;;;;;;;;;;;;;6132377;23;19960;-96
2023/05/20 00:50:50;;;;;;;;;;;;;;;;;;6130849;23;19967;-95
2023/05/20 00:53:17;;;;;;;;;;;;;;;;;;6155275;23;19917;-96
2023/05/20 00:55:43;;;;;;;;;;;;;;;;;;6156326;23;19924;-95
2023/05/20 00:58:09;;;;;;;;;;;;;;;;;;6130242;23;19916;-96
2023/05/20 01:00:35;;;;;;;;;;;;;;;;;;6130334;23;19952;-95
2023/05/20 01:03:01;;;;;;;;;;;;;;;;;;6132003;23;19921;-94
2023/05/20 01:05:34;;;;;;;;;;;;;;;;;;6156724;23;19917;-94
2023/05/20 01:08:00;;;;;;;;;;;;;;;;;;6130502;23;19917;-96
2023/05/20 01:10:29;;;;;;;;;;;;;;;;;;6132559;23;19986;-96
2023/05/20 01:12:55;;;;;;;;;;;;;;;;;;6132945;23;19917;-96
2023/05/20 01:18:35;;;;;;;;;;;;;;;;;;6157456;23;19917;-94
2023/05/20 01:21:04;;;;;;;;;;;;;;;;;;6155508;23;19943;-95
2023/05/20 01:23:30;;;;;;;;;;;;;;;;;;6154176;23;20331;-96
2023/05/20 01:25:58;;;;;;;;;;;;;;;;;;6129762;23;20341;-95
2023/05/20 01:28:25;;;;;;;;;;;;;;;;;;6130541;23;19935;-95
2023/05/20 01:30:51;;;;;;;;;;;;;;;;;;6130365;23;19995;-96
2023/05/20 01:33:20;;;;;;;;;;;;;;;;;;6155606;23;19924;-96
2023/05/20 01:35:49;;;;;;;;;;;;;;;;;;6131516;23;19916;-95
2023/05/20 01:38:33;;;;;;;;;;;;;;;;;;6158106;23;19916;-96
2023/05/20 01:40:59;;;;;;;;;;;;;;;;;;6158371;23;20438;-95
2023/05/20 01:43:27;;;;;;;;;;;;;;;;;;6129002;23;19921;-95
2023/05/20 01:46:01;;;;;;;;;;;;;;;;;;6133283;23;19992;-94
2023/05/20 01:48:27;;;;;;;;;;;;;;;;;;6154477;23;19924;-94
2023/05/20 01:51:15;;;;;;;;;;;;;;;;;;;;;
2023/05/20 01:57:13;;;;;;;;;;;;;;;;;;6165323;23;20353;-95
2023/05/20 02:09:05;;;;;;;;;;;;;;;;;;;;;
2023/05/20 02:14:28;;;;;;;;;;;;;;;;;;6099833;23;19917;-95
2023/05/20 02:16:57;;;;;;;;;;;;;;;;;;6100777;23;20031;-96
2023/05/20 02:19:23;;;;;;;;;;;;;;;;;;6102812;23;19990;-93
2023/05/20 02:21:49;;;;;;;;;;;;;;;;;;6085969;23;19960;-94
2023/05/20 02:24:15;;;;;;;;;;;;;;;;;;6076687;23;19917;-96
2023/05/20 02:26:43;;;;;;;;;;;;;;;;;;6078498;23;19917;-96
2023/05/20 02:29:09;;;;;;;;;;;;;;;;;;6101912;23;19917;-95
2023/05/20 02:31:35;;;;;;;;;;;;;;;;;;6100939;23;19916;-95
2023/05/20 02:34:03;;;;;;;;;;;;;;;;;;6077136;23;20007;-96
2023/05/20 02:36:31;;;;;;;;;;;;;;;;;;6091686;23;19916;-94
2023/05/20 02:38:57;;;;;;;;;;;;;;;;;;6131284;23;20247;-94
2023/05/20 02:41:23;;;;;;;;;;;;;;;;;;6156112;23;19923;-96
2023/05/20 02:43:49;;;;;;;;;;;;;;;;;;6155487;23;20003;-94
2023/05/20 02:46:17;;;;;;;;;;;;;;;;;;6131233;23;19916;-95
2023/05/20 02:48:43;;;;;;;;;;;;;;;;;;6131233;23;19987;-94
2023/05/20 02:51:09;;;;;;;;;;;;;;;;;;6131513;23;19923;-96
2023/05/20 02:53:35;;;;;;;;;;;;;;;;;;6130897;23;19987;-96
2023/05/20 02:56:01;;;;;;;;;;;;;;;;;;6155392;23;20327;-94
2023/05/20 02:58:28;;;;;;;;;;;;;;;;;;6156950;23;19995;-94
2023/05/20 03:00:57;;;;;;;;;;;;;;;;;;6131069;23;19992;-95
2023/05/20 03:03:23;;;;;;;;;;;;;;;;;;6158164;23;19945;-94
2023/05/20 03:05:49;;;;;;;;;;;;;;;;;;6131487;23;19976;-95
2023/05/20 03:08:15;;;;;;;;;;;;;;;;;;6156628;23;19928;-96
2023/05/20 03:10:41;;;;;;;;;;;;;;;;;;6155564;23;19916;-95
2023/05/20 03:13:08;;;;;;;;;;;;;;;;;;6130565;23;20007;-93
2023/05/20 03:15:36;;;;;;;;;;;;;;;;;;6130795;23;19920;-96
2023/05/20 03:18:02;;;;;;;;;;;;;;;;;;6130594;23;19923;-95
2023/05/20 03:20:28;;;;;;;;;;;;;;;;;;6155925;23;19916;-96
2023/05/20 03:22:55;;;;;;;;;;;;;;;;;;6155777;23;19981;-96
2023/05/20 03:25:23;;;;;;;;;;;;;;;;;;6131205;23;19925;-94
2023/05/20 03:27:50;;;;;;;;;;;;;;;;;;6131499;23;19917;-95
2023/05/20 03:30:16;;;;;;;;;;;;;;;;;;6156809;23;19916;-96
2023/05/20 03:32:43;;;;;;;;;;;;;;;;;;6156964;23;19971;-95
2023/05/20 03:35:09;;;;;;;;;;;;;;;;;;6154967;23;20247;-94
2023/05/20 03:37:35;;;;;;;;;;;;;;;;;;6131748;23;19923;-96
2023/05/20 03:40:01;;;;;;;;;;;;;;;;;;6135281;23;19955;-95
2023/05/20 03:42:29;;;;;;;;;;;;;;;;;;6159754;23;19979;-94
2023/05/20 03:44:56;;;;;;;;;;;;;;;;;;6135258;23;19917;-95
2023/05/20 03:47:21;;;;;;;;;;;;;;;;;;6163042;23;20100;-96
2023/05/20 03:49:57;;;;;;;;;;;;;;;;;;6158335;23;20063;-96
2023/05/20 03:52:33;;;;;;;;;;;;;;;;;;6158935;23;19916;-94
2023/05/20 03:55:02;;;;;;;;;;;;;;;;;;6131792;23;19983;-96
2023/05/20 03:57:34;;;;;;;;;;;;;;;;;;6156989;23;19921;-96
2023/05/20 04:00:01;;;;;;;;;;;;;;;;;;6156693;23;20250;-93
2023/05/20 04:02:27;;;;;;;;;;;;;;;;;;6132135;23;19921;-94
2023/05/20 04:07:48;;;;;;;;;;;;;;;;;;6161755;23;19932;-96
2023/05/20 04:10:14;;;;;;;;;;;;;;;;;;6156378;23;19943;-96
2023/05/20 04:12:40;;;;;;;;;;;;;;;;;;6130560;23;20288;-95
2023/05/20 04:15:08;;;;;;;;;;;;;;;;;;6130661;23;19917;-96
2023/05/20 04:17:37;;;;;;;;;;;;;;;;;;6154465;23;19924;-96
2023/05/20 04:20:05;;;;;;;;;;;;;;;;;;6130557;23;19916;-95
2023/05/20 04:22:31;;;;;;;;;;;;;;;;;;6130900;23;19920;-95
2023/05/20 04:25:05;;;;;;;;;;;;;;;;;;6156714;23;19940;-96
2023/05/20 04:27:43;;;;;;;;;;;;;;;;;;6139219;23;19939;-95
2023/05/20 04:30:32;;;;;;;;;;;;;;;;;;6135943;23;19923;-93
2023/05/20 04:33:07;;;;;;;;;;;;;;;;;;6165608;23;19951;-94
2023/05/20 04:35:40;;;;;;;;;;;;;;;;;;6139308;23;19917;-93
2023/05/20 04:38:09;;;;;;;;;;;;;;;;;;6167066;23;19916;-95
2023/05/20 04:40:50;;;;;;;;;;;;;;;;;;6143202;23;19924;-95
2023/05/20 04:49:18;;;;;;;;;;;;;;;;;;6164748;23;19931;-92
2023/05/20 04:51:59;;;;;;;;;;;;;;;;;;6134715;23;19916;-96
2023/05/20 04:54:28;;;;;;;;;;;;;;;;;;6132366;23;19956;-94
2023/05/20 04:56:54;;;;;;;;;;;;;;;;;;6105618;23;19952;-94
2023/05/20 04:59:20;;;;;;;;;;;;;;;;;;6105259;23;19916;-96
2023/05/20 05:01:46;;;;;;;;;;;;;;;;;;6131050;23;19923;-94
2023/05/20 05:04:14;;;;;;;;;;;;;;;;;;6109722;23;19916;-94
2023/05/20 05:06:43;;;;;;;;;;;;;;;;;;6137820;23;19916;-93
2023/05/20 05:09:09;;;;;;;;;;;;;;;;;;6112540;23;19923;-91
2023/05/20 05:11:35;;;;;;;;;;;;;;;;;;6108739;23;19999;-95
2023/05/20 05:14:02;;;;;;;;;;;;;;;;;;6142929;23;19917;-94
2023/05/20 05:16:30;;;;;;;;;;;;;;;;;;6144130;23;19923;-93
2023/05/20 05:18:56;;;;;;;;;;;;;;;;;;6144516;23;19917;-94
2023/05/20 05:21:22;;;;;;;;;;;;;;;;;;6119613;23;19917;-91
2023/05/20 05:23:48;;;;;;;;;;;;;;;;;;6117825;23;19928;-92
2023/05/20 05:26:14;;;;;;;;;;;;;;;;;;6106268;23;20266;-93
2023/05/20 05:28:40;;;;;;;;;;;;;;;;;;6129530;23;19917;-93
2023/05/20 05:31:07;;;;;;;;;;;;;;;;;;6129535;23;19916;-94
2023/05/20 05:33:32;;;;;;;;;;;;;;;;;;6105389;23;19923;-93
2023/05/20 05:35:59;;;;;;;;;;;;;;;;;;6155885;23;19988;-92
2023/05/20 05:38:25;;;;;;;;;;;;;;;;;;6105341;23;20398;-93
2023/05/20 05:40:51;;;;;;;;;;;;;;;;;;6129249;23;19917;-93
2023/05/20 05:43:17;;;;;;;;;;;;;;;;;;6155656;23;19921;-93
2023/05/20 05:45:43;;;;;;;;;;;;;;;;;;6104750;23;19924;-92
2023/05/20 05:48:10;;;;;;;;;;;;;;;;;;6112227;23;19991;-93
2023/05/20 05:50:36;;;;;;;;;;;;;;;;;;6155634;23;19916;-93
2023/05/20 05:53:02;;;;;;;;;;;;;;;;;;6154017;23;19960;-93
2023/05/20 05:55:27;;;;;;;;;;;;;;;;;;6153732;23;19921;-93
2023/05/20 05:57:53;;;;;;;;;;;;;;;;;;6154019;23;20294;-92
2023/05/20 06:00:19;;;;;;;;;;;;;;;;;;6155827;23;19924;-91
2023/05/20 06:02:45;;;;;;;;;;;;;;;;;;6131069;23;19995;-93
2023/05/20 06:05:11;;;;;;;;;;;;;;;;;;6158068;23;19927;-93
2023/05/20 06:07:37;;;;;;;;;;;;;;;;;;6130613;23;19917;-93
2023/05/20 06:10:03;;;;;;;;;;;;;;;;;;6131015;23;19917;-90
2023/05/20 06:12:29;;;;;;;;;;;;;;;;;;6157136;23;19923;-92
2023/05/20 06:14:55;;;;;;;;;;;;;;;;;;6130867;23;19992;-92
2023/05/20 06:17:21;;;;;;;;;;;;;;;;;;6130900;23;19917;-92
2023/05/20 06:19:47;;;;;;;;;;;;;;;;;;6155435;23;19924;-92
2023/05/20 06:22:13;;;;;;;;;;;;;;;;;;6155211;23;19928;-93
2023/05/20 06:24:39;;;;;;;;;;;;;;;;;;6131054;23;19996;-92
2023/05/20 06:27:08;;;;;;;;;;;;;;;;;;6157531;23;19917;-93
2023/05/20 06:29:34;;;;;;;;;;;;;;;;;;6157539;23;19921;-94
2023/05/20 06:32:00;;;;;;;;;;;;;;;;;;6132560;23;20330;-96
2023/05/20 06:34:26;;;;;;;;;;;;;;;;;;6157329;23;20008;-96
2023/05/20 06:36:52;;;;;;;;;;;;;;;;;;6132132;23;19991;-96
2023/05/20 06:39:18;;;;;;;;;;;;;;;;;;6160640;23;19927;-95
2023/05/20 06:41:53;;;;;;;;;;;;;;;;;;;;;
2023/05/20 06:44:25;;;;;;;;;;;;;;;;;;6160642;23;19951;-95
2023/05/20 06:46:51;;;;;;;;;;;;;;;;;;6135625;23;19959;-93
2023/05/20 06:49:17;;;;;;;;;;;;;;;;;;6155440;23;19920;-96
2023/05/20 06:51:43;;;;;;;;;;;;;;;;;;6157416;23;19920;-94
2023/05/20 06:54:09;;;;;;;;;;;;;;;;;;6154809;23;20002;-89
2023/05/20 06:56:35;;;;;;;;;;;;;;;;;;6156254;23;19936;-90
2023/05/20 06:59:01;;;;;;;;;;;;;;;;;;6129433;23;19932;-89
2023/05/20 07:01:27;;;;;;;;;;;;;;;;;;6156035;23;19917;-90
2023/05/20 07:03:53;;;;;;;;;;;;;;;;;;6154906;23;19921;-93
2023/05/20 07:06:19;;;;;;;;;;;;;;;;;;6155001;23;20242;-90
2023/05/20 07:08:45;;;;;;;;;;;;;;;;;;6154760;23;20271;-96
2023/05/20 07:11:11;;;;;;;;;;;;;;;;;;6154759;23;19974;-90
2023/05/20 07:13:36;;;;;;;;;;;;;;;;;;6154684;23;20211;-91
2023/05/20 07:16:02;;;;;;;;;;;;;;;;;;6154066;23;19917;-90
2023/05/20 07:18:28;;;;;;;;;;;;;;;;;;6154096;23;19939;-91
2023/05/20 07:20:55;;;;;;;;;;;;;;;;;;6156010;23;19995;-90
2023/05/20 07:23:21;;;;;;;;;;;;;;;;;;6129468;23;20031;-89
2023/05/20 07:25:48;;;;;;;;;;;;;;;;;;6154460;23;19917;-92
2023/05/20 07:28:14;;;;;;;;;;;;;;;;;;6154164;23;19991;-90
2023/05/20 07:30:40;;;;;;;;;;;;;;;;;;6156075;23;19917;-92
2023/05/20 07:33:06;;;;;;;;;;;;;;;;;;6156148;23;19917;-89
2023/05/20 07:35:32;;;;;;;;;;;;;;;;;;6154007;23;20339;-92
2023/05/20 07:37:58;;;;;;;;;;;;;;;;;;6129746;23;19916;-91
2023/05/20 07:40:25;;;;;;;;;;;;;;;;;;6155734;23;19982;-91
2023/05/20 07:42:51;;;;;;;;;;;;;;;;;;6155705;23;19960;-92
2023/05/20 07:45:17;;;;;;;;;;;;;;;;;;6154093;23;20354;-92
2023/05/20 07:47:43;;;;;;;;;;;;;;;;;;6128938;23;19935;-91
2023/05/20 07:50:08;;;;;;;;;;;;;;;;;;6155916;23;19917;-91
2023/05/20 07:52:34;;;;;;;;;;;;;;;;;;6153741;23;19956;-91
2023/05/20 07:55:00;;;;;;;;;;;;;;;;;;6154055;23;19944;-89
2023/05/20 07:57:26;;;;;;;;;;;;;;;;;;6153756;23;19916;-89
2023/05/20 07:59:52;;;;;;;;;;;;;;;;;;6155680;23;19917;-92
2023/05/20 08:02:18;;;;;;;;;;;;;;;;;;6154162;23;20331;-92
2023/05/20 08:04:44;;;;;;;;;;;;;;;;;;6129498;23;19920;-93
2023/05/20 08:07:10;;;;;;;;;;;;;;;;;;6154316;23;19917;-92
2023/05/20 08:09:36;;;;;;;;;;;;;;;;;;6153737;23;20238;-92
2023/05/20 08:12:02;;;;;;;;;;;;;;;;;;6154149;23;19967;-91
2023/05/20 08:14:28;;;;;;;;;;;;;;;;;;6128977;23;19997;-91
2023/05/20 08:16:54;;;;;;;;;;;;;;;;;;6155226;23;19916;-92
2023/05/20 08:19:20;;;;;;;;;;;;;;;;;;6152686;23;19960;-93
2023/05/20 08:21:46;;;;;;;;;;;;;;;;;;6155106;23;19917;-92
2023/05/20 08:24:12;;;;;;;;;;;;;;;;;;6153748;23;20327;-92
2023/05/20 08:26:38;;;;;;;;;;;;;;;;;;6153343;23;19944;-91
2023/05/20 08:29:03;;;;;;;;;;;;;;;;;;6129267;23;19988;-91
2023/05/20 08:31:29;;;;;;;;;;;;;;;;;;6128777;23;19923;-92
2023/05/20 08:33:58;;;;;;;;;;;;;;;;;;6128581;23;19991;-92
2023/05/20 08:36:24;;;;;;;;;;;;;;;;;;6153488;23;19916;-91
2023/05/20 08:38:50;;;;;;;;;;;;;;;;;;6153735;23;19992;-92
2023/05/20 08:41:16;;;;;;;;;;;;;;;;;;6128577;23;19971;-91
2023/05/20 08:43:42;;;;;;;;;;;;;;;;;;6153213;23;19928;-91
2023/05/20 08:46:08;;;;;;;;;;;;;;;;;;6128397;23;19921;-91
2023/05/20 08:48:34;;;;;;;;;;;;;;;;;;6128530;23;19924;-92
2023/05/20 08:51:00;;;;;;;;;;;;;;;;;;6128621;23;19916;-91
2023/05/20 08:53:26;;;;;;;;;;;;;;;;;;6128562;23;19917;-91
2023/05/20 08:55:52;;;;;;;;;;;;;;;;;;6155018;23;19934;-90
2023/05/20 08:58:18;;;;;;;;;;;;;;;;;;6153372;23;19916;-91
2023/05/20 09:00:44;;;;;;;;;;;;;;;;;;6154691;23;19979;-91
2023/05/20 09:03:10;;;;;;;;;;;;;;;;;;6153073;23;19921;-91
2023/05/20 09:05:36;;;;;;;;;;;;;;;;;;6152723;23;19917;-92
2023/05/20 09:08:02;;;;;;;;;;;;;;;;;;6154903;23;19992;-91
2023/05/20 09:10:28;;;;;;;;;;;;;;;;;;6154834;23;20260;-91
2023/05/20 09:12:54;;;;;;;;;;;;;;;;;;6152908;23;20003;-91
2023/05/20 09:15:20;;;;;;;;;;;;;;;;;;6152898;23;20044;-91
2023/05/20 09:17:46;;;;;;;;;;;;;;;;;;6128575;23;19921;-92
2023/05/20 09:20:12;;;;;;;;;;;;;;;;;;6155209;23;19927;-91
2023/05/20 09:22:38;;;;;;;;;;;;;;;;;;6153303;23;19920;-91
2023/05/20 09:25:05;;;;;;;;;;;;;;;;;;6153384;23;20335;-91
2023/05/20 09:27:31;;;;;;;;;;;;;;;;;;6155028;23;19916;-92
2023/05/20 09:29:57;;;;;;;;;;;;;;;;;;6128566;23;20195;-92
2023/05/20 09:32:25;;;;;;;;;;;;;;;;;;6128736;23;20053;-93
2023/05/20 09:34:51;;;;;;;;;;;;;;;;;;6130020;23;19923;-91
2023/05/20 09:37:18;;;;;;;;;;;;;;;;;;6155124;23;19983;-92
2023/05/20 09:39:44;;;;;;;;;;;;;;;;;;6155461;23;19916;-93
2023/05/20 09:42:10;;;;;;;;;;;;;;;;;;6154965;23;19921;-91
2023/05/20 09:44:36;;;;;;;;;;;;;;;;;;6155437;23;19921;-92
2023/05/20 09:47:02;;;;;;;;;;;;;;;;;;6130298;23;19944;-92
2023/05/20 09:49:28;;;;;;;;;;;;;;;;;;6130215;23;20342;-93
2023/05/20 09:51:54;;;;;;;;;;;;;;;;;;6131003;23;19920;-91
2023/05/20 09:54:20;;;;;;;;;;;;;;;;;;6157183;23;19917;-93
2023/05/20 09:56:46;;;;;;;;;;;;;;;;;;6157353;23;19959;-93
2023/05/20 09:59:12;;;;;;;;;;;;;;;;;;6155719;23;20341;-92
2023/05/20 10:01:38;;;;;;;;;;;;;;;;;;6130348;23;20022;-90
2023/05/20 10:04:04;;;;;;;;;;;;;;;;;;6155527;23;19964;-91
2023/05/20 10:06:30;;;;;;;;;;;;;;;;;;6156659;23;19952;-90
2023/05/20 10:08:56;;;;;;;;;;;;;;;;;;6155011;23;19991;-90
2023/05/20 10:11:22;;;;;;;;;;;;;;;;;;6156299;23;19995;-90
2023/05/20 10:13:48;;;;;;;;;;;;;;;;;;6130215;23;19923;-92
2023/05/20 10:16:14;;;;;;;;;;;;;;;;;;6156884;23;19917;-91
2023/05/20 10:18:40;;;;;;;;;;;;;;;;;;6129985;23;20299;-91
2023/05/20 10:21:06;;;;;;;;;;;;;;;;;;6154809;23;19948;-92
2023/05/20 10:23:32;;;;;;;;;;;;;;;;;;6154411;23;19963;-93
2023/05/20 10:25:58;;;;;;;;;;;;;;;;;;6154868;23;20233;-90
2023/05/20 10:28:24;;;;;;;;;;;;;;;;;;6130139;23;19948;-90
2023/05/20 10:30:50;;;;;;;;;;;;;;;;;;6129024;23;19916;-90
2023/05/20 10:33:16;;;;;;;;;;;;;;;;;;6130184;23;20290;-91
2023/05/20 10:35:41;;;;;;;;;;;;;;;;;;6154581;23;19968;-93
2023/05/20 10:38:08;;;;;;;;;;;;;;;;;;6155030;23;19964;-91
2023/05/20 10:40:34;;;;;;;;;;;;;;;;;;6154903;23;19996;-93
2023/05/20 10:43:00;;;;;;;;;;;;;;;;;;6130153;23;19960;-93
2023/05/20 10:45:26;;;;;;;;;;;;;;;;;;6155353;23;19924;-91
2023/05/20 10:47:52;;;;;;;;;;;;;;;;;;6154255;23;19924;-88
2023/05/20 10:50:18;;;;;;;;;;;;;;;;;;6129974;23;19916;-90
2023/05/20 10:52:44;;;;;;;;;;;;;;;;;;6154270;23;19917;-89
2023/05/20 10:55:10;;;;;;;;;;;;;;;;;;6129903;23;19917;-90
2023/05/20 10:57:36;;;;;;;;;;;;;;;;;;6155983;23;20243;-90
2023/05/20 11:00:04;;;;;;;;;;;;;;;;;;6154138;23;19917;-90
2023/05/20 11:02:30;;;;;;;;;;;;;;;;;;6157894;23;19992;-89
2023/05/20 11:04:59;;;;;;;;;;;;;;;;;;6154767;23;19975;-90
2023/05/20 11:07:26;;;;;;;;;;;;;;;;;;6156415;23;19920;-90
2023/05/20 11:09:52;;;;;;;;;;;;;;;;;;6129371;23;19987;-91
2023/05/20 11:12:18;;;;;;;;;;;;;;;;;;6129823;23;19951;-92
2023/05/20 11:14:43;;;;;;;;;;;;;;;;;;6155129;23;19917;-91
2023/05/20 11:17:09;;;;;;;;;;;;;;;;;;6129669;23;19917;-93
2023/05/20 11:19:35;;;;;;;;;;;;;;;;;;6156289;23;19917;-93
2023/05/20 11:22:01;;;;;;;;;;;;;;;;;;6154466;23;19916;-92
2023/05/20 11:24:27;;;;;;;;;;;;;;;;;;6129772;23;20357;-90
2023/05/20 11:26:53;;;;;;;;;;;;;;;;;;6129570;23;19992;-93
2023/05/20 11:29:21;;;;;;;;;;;;;;;;;;6156198;23;20312;-90
2023/05/20 11:31:47;;;;;;;;;;;;;;;;;;6128210;23;20338;-88
2023/05/20 11:34:14;;;;;;;;;;;;;;;;;;6154321;23;19917;-89
2023/05/20 11:36:40;;;;;;;;;;;;;;;;;;6129002;23;19971;-90
2023/05/20 11:39:06;;;;;;;;;;;;;;;;;;6129173;23;19917;-89
2023/05/20 11:41:34;;;;;;;;;;;;;;;;;;6153544;23;19917;-89
2023/05/20 11:44:00;;;;;;;;;;;;;;;;;;6153489;23;19927;-92
2023/05/20 11:46:26;;;;;;;;;;;;;;;;;;6153913;23;19917;-90
2023/05/20 11:48:52;;;;;;;;;;;;;;;;;;6128812;23;19920;-92
2023/05/20 11:51:18;;;;;;;;;;;;;;;;;;6129411;23;19927;-90
2023/05/20 11:53:44;;;;;;;;;;;;;;;;;;6155766;23;19975;-91
2023/05/20 11:56:10;;;;;;;;;;;;;;;;;;6153337;23;19944;-91
2023/05/20 11:58:36;;;;;;;;;;;;;;;;;;6129773;23;19917;-91
2023/05/20 12:01:02;;;;;;;;;;;;;;;;;;6129200;23;19917;-92
2023/05/20 12:03:27;;;;;;;;;;;;;;;;;;6155446;23;19920;-91
2023/05/20 12:05:53;;;;;;;;;;;;;;;;;;6155688;23;20241;-91
2023/05/20 12:08:19;;;;;;;;;;;;;;;;;;6129578;23;19920;-92
2023/05/20 12:10:45;;;;;;;;;;;;;;;;;;6154179;23;19927;-91
2023/05/20 12:13:12;;;;;;;;;;;;;;;;;;6154215;23;19920;-91
2023/05/20 12:15:38;;;;;;;;;;;;;;;;;;6129184;23;19988;-92
2023/05/20 12:18:04;;;;;;;;;;;;;;;;;;6129425;23;19979;-93
2023/05/20 12:20:30;;;;;;;;;;;;;;;;;;6129393;23;20342;-90
2023/05/20 12:22:56;;;;;;;;;;;;;;;;;;6153707;23;20350;-91
2023/05/20 12:25:22;;;;;;;;;;;;;;;;;;6153818;23;19917;-91
2023/05/20 12:27:49;;;;;;;;;;;;;;;;;;6155489;23;19916;-90
2023/05/20 12:30:15;;;;;;;;;;;;;;;;;;6155163;23;19974;-89
2023/05/20 12:32:42;;;;;;;;;;;;;;;;;;6152494;23;20040;-89
2023/05/20 12:35:08;;;;;;;;;;;;;;;;;;6153570;23;20389;-89
2023/05/20 12:37:34;;;;;;;;;;;;;;;;;;6128921;23;19956;-90
2023/05/20 12:40:00;;;;;;;;;;;;;;;;;;6153019;23;20282;-90
2023/05/20 12:42:25;;;;;;;;;;;;;;;;;;6155216;23;20196;-89
2023/05/20 12:44:51;;;;;;;;;;;;;;;;;;6153453;23;19924;-90
2023/05/20 12:47:17;;;;;;;;;;;;;;;;;;6153003;23;19917;-90
2023/05/20 12:49:43;;;;;;;;;;;;;;;;;;6127930;23;19916;-90
2023/05/20 12:52:09;;;;;;;;;;;;;;;;;;6103407;23;20300;-89
2023/05/20 12:54:35;;;;;;;;;;;;;;;;;;6127966;23;19927;-92
2023/05/20 12:57:01;;;;;;;;;;;;;;;;;;6127785;23;20075;-89
2023/05/20 12:59:28;;;;;;;;;;;;;;;;;;6154119;23;19959;-91
2023/05/20 13:01:54;;;;;;;;;;;;;;;;;;6127913;23;20242;-90
2023/05/20 13:04:20;;;;;;;;;;;;;;;;;;6127349;23;19924;-90
2023/05/20 13:06:46;;;;;;;;;;;;;;;;;;6127276;23;19917;-89
2023/05/20 13:09:12;;;;;;;;;;;;;;;;;;6153173;23;20283;-90
2023/05/20 13:11:38;;;;;;;;;;;;;;;;;;6103078;23;20293;-90
2023/05/20 13:14:03;;;;;;;;;;;;;;;;;;6127495;23;19916;-89
2023/05/20 13:16:29;;;;;;;;;;;;;;;;;;6127115;23;20255;-90
2023/05/20 13:18:55;;;;;;;;;;;;;;;;;;6103190;23;19927;-88
2023/05/20 13:21:21;;;;;;;;;;;;;;;;;;6102265;23;20000;-89
2023/05/20 13:23:47;;;;;;;;;;;;;;;;;;6127128;23;19921;-89
2023/05/20 13:26:13;;;;;;;;;;;;;;;;;;6127136;23;19916;-89
2023/05/20 13:28:39;;;;;;;;;;;;;;;;;;6153524;23;19972;-89
2023/05/20 13:31:05;;;;;;;;;;;;;;;;;;6127180;23;20250;-89
2023/05/20 13:33:31;;;;;;;;;;;;;;;;;;6127029;23;20331;-90
2023/05/20 13:35:57;;;;;;;;;;;;;;;;;;6127541;23;19916;-90
2023/05/20 13:38:23;;;;;;;;;;;;;;;;;;6153761;23;19979;-89
2023/05/20 13:40:49;;;;;;;;;;;;;;;;;;6127280;23;20286;-90
2023/05/20 13:43:15;;;;;;;;;;;;;;;;;;6126891;23;19932;-89
2023/05/20 13:45:41;;;;;;;;;;;;;;;;;;6102691;23;20037;-89
2023/05/20 13:48:07;;;;;;;;;;;;;;;;;;6076382;23;1801068;-90
2023/05/20 13:50:33;;;;;;;;;;;;;;;;;;6153884;23;19923;-90
2023/05/20 13:52:59;;;;;;;;;;;;;;;;;;6155063;23;19916;-90
2023/05/20 13:55:27;;;;;;;;;;;;;;;;;;6130191;23;19995;-89
2023/05/20 13:57:53;;;;;;;;;;;;;;;;;;6103817;23;19987;-89
2023/05/20 14:00:19;;;;;;;;;;;;;;;;;;6104392;23;19917;-89
2023/05/20 14:02:45;;;;;;;;;;;;;;;;;;6103859;23;19932;-89
2023/05/20 14:05:11;;;;;;;;;;;;;;;;;;6128358;23;20036;-88
2023/05/20 14:07:38;;;;;;;;;;;;;;;;;;6127928;23;20158;-88
2023/05/20 14:10:03;;;;;;;;;;;;;;;;;;6103951;23;19964;-88
2023/05/20 14:12:30;;;;;;;;;;;;;;;;;;6154629;23;19917;-89
2023/05/20 14:14:56;;;;;;;;;;;;;;;;;;6128731;23;20350;-88
2023/05/20 14:17:22;;;;;;;;;;;;;;;;;;6103663;23;20293;-89
2023/05/20 14:19:48;;;;;;;;;;;;;;;;;;6128831;23;19924;-89
2023/05/20 14:22:14;;;;;;;;;;;;;;;;;;6130345;23;19931;-89
2023/05/20 14:24:40;;;;;;;;;;;;;;;;;;6129895;23;19916;-90
2023/05/20 14:27:06;;;;;;;;;;;;;;;;;;6129860;23;19923;-88
2023/05/20 14:29:32;;;;;;;;;;;;;;;;;;6104927;23;20289;-91
2023/05/20 14:32:00;;;;;;;;;;;;;;;;;;6104720;23;19928;-90
2023/05/20 14:34:26;;;;;;;;;;;;;;;;;;6129796;23;19918;-89
2023/05/20 14:36:52;;;;;;;;;;;;;;;;;;6130081;23;19969;-90
2023/05/20 14:39:17;;;;;;;;;;;;;;;;;;6130425;23;19917;-90
2023/05/20 14:41:45;;;;;;;;;;;;;;;;;;6129921;23;19952;-90
2023/05/20 14:44:11;;;;;;;;;;;;;;;;;;6129632;23;20463;-90
2023/05/20 14:46:36;;;;;;;;;;;;;;;;;;6129774;23;19920;-89
2023/05/20 14:49:02;;;;;;;;;;;;;;;;;;6147887;23;19920;-90
2023/05/20 14:51:28;;;;;;;;;;;;;;;;;;6129458;23;19924;-89
2023/05/20 14:53:54;;;;;;;;;;;;;;;;;;6129711;23;20246;-88
2023/05/20 14:56:20;;;;;;;;;;;;;;;;;;6154810;23;19967;-91
2023/05/20 14:58:46;;;;;;;;;;;;;;;;;;6155740;23;19917;-92
2023/05/20 15:01:12;;;;;;;;;;;;;;;;;;6155270;23;20235;-91
2023/05/20 15:03:38;;;;;;;;;;;;;;;;;;6154775;23;19921;-92
2023/05/20 15:06:04;;;;;;;;;;;;;;;;;;6156519;23;19917;-91
2023/05/20 15:08:33;;;;;;;;;;;;;;;;;;6132201;23;20347;-92
2023/05/20 15:10:59;;;;;;;;;;;;;;;;;;6130255;23;19923;-92
2023/05/20 15:13:25;;;;;;;;;;;;;;;;;;6154388;23;19944;-92
2023/05/20 15:15:51;;;;;;;;;;;;;;;;;;6130239;23;19924;-91
2023/05/20 15:18:17;;;;;;;;;;;;;;;;;;6160475;23;19959;-92
2023/05/20 15:20:42;;;;;;;;;;;;;;;;;;6157386;23;19991;-92
2023/05/20 15:23:10;;;;;;;;;;;;;;;;;;6129466;23;19973;-91
2023/05/20 15:25:36;;;;;;;;;;;;;;;;;;6154506;23;19996;-91
2023/05/20 15:28:01;;;;;;;;;;;;;;;;;;6129958;23;19991;-93
2023/05/20 15:30:27;;;;;;;;;;;;;;;;;;6154088;23;19939;-91
2023/05/20 15:32:53;;;;;;;;;;;;;;;;;;6154144;23;19917;-91
2023/05/20 15:35:19;;;;;;;;;;;;;;;;;;6155556;23;19924;-92
2023/05/20 15:37:45;;;;;;;;;;;;;;;;;;6158558;23;20021;-93
2023/05/20 15:40:11;;;;;;;;;;;;;;;;;;6131180;23;19927;-94
2023/05/20 15:42:37;;;;;;;;;;;;;;;;;;6132656;23;19962;-93
2023/05/20 15:45:04;;;;;;;;;;;;;;;;;;6168655;23;19927;-95
2023/05/20 15:47:33;;;;;;;;;;;;;;;;;;6161064;23;20000;-94
2023/05/20 15:50:01;;;;;;;;;;;;;;;;;;6131669;23;19963;-96
2023/05/20 15:52:26;;;;;;;;;;;;;;;;;;6106556;23;19917;-92
2023/05/20 15:54:55;;;;;;;;;;;;;;;;;;6129961;23;20353;-89
2023/05/20 15:57:21;;;;;;;;;;;;;;;;;;6130344;23;20323;-92
2023/05/20 15:59:46;;;;;;;;;;;;;;;;;;6107020;23;19916;-93
2023/05/20 16:02:12;;;;;;;;;;;;;;;;;;6130068;23;19921;-92
2023/05/20 16:04:38;;;;;;;;;;;;;;;;;;6156810;23;20176;-92
2023/05/20 16:07:04;;;;;;;;;;;;;;;;;;6129931;23;19963;-93
2023/05/20 16:09:30;;;;;;;;;;;;;;;;;;6130248;23;20243;-93
2023/05/20 16:11:59;;;;;;;;;;;;;;;;;;6130780;23;19916;-93
2023/05/20 16:14:25;;;;;;;;;;;;;;;;;;6106281;23;19916;-93
2023/05/20 16:16:51;;;;;;;;;;;;;;;;;;6105951;23;19916;-93
2023/05/20 16:19:17;;;;;;;;;;;;;;;;;;6105307;23;19916;-91
2023/05/20 16:21:43;;;;;;;;;;;;;;;;;;6105394;23;19991;-94
2023/05/20 16:24:09;;;;;;;;;;;;;;;;;;6130637;23;19995;-92
2023/05/20 16:26:35;;;;;;;;;;;;;;;;;;6105933;23;19920;-93
2023/05/20 16:29:01;;;;;;;;;;;;;;;;;;6105370;23;20323;-91
2023/05/20 16:31:26;;;;;;;;;;;;;;;;;;6104591;23;19917;-92
2023/05/20 16:33:52;;;;;;;;;;;;;;;;;;6129763;23;19968;-92
2023/05/20 16:36:20;;;;;;;;;;;;;;;;;;6105050;23;19917;-93
2023/05/20 16:38:46;;;;;;;;;;;;;;;;;;6104614;23;19970;-93
2023/05/20 16:41:18;;;;;;;;;;;;;;;;;;6129796;23;19964;-92
2023/05/20 16:43:44;;;;;;;;;;;;;;;;;;6104041;23;19920;-93
2023/05/20 16:46:11;;;;;;;;;;;;;;;;;;6130009;23;19975;-93
2023/05/20 16:48:37;;;;;;;;;;;;;;;;;;6118781;23;19956;-94
2023/05/20 16:51:03;;;;;;;;;;;;;;;;;;6133290;23;19917;-93
2023/05/20 16:53:29;;;;;;;;;;;;;;;;;;6165764;23;19956;-92
2023/05/20 16:55:55;;;;;;;;;;;;;;;;;;6154219;23;19944;-96
2023/05/20 16:58:21;;;;;;;;;;;;;;;;;;6130126;23;19916;-95
2023/05/20 17:01:08;;;;;;;;;;;;;;;;;;6160522;23;19916;-96
2023/05/20 17:03:33;;;;;;;;;;;;;;;;;;6154920;23;19920;-94
2023/05/20 17:05:59;;;;;;;;;;;;;;;;;;6155667;23;19948;-95
2023/05/20 17:08:25;;;;;;;;;;;;;;;;;;6130849;23;19936;-94
2023/05/20 17:10:51;;;;;;;;;;;;;;;;;;6133969;23;19927;-93
2023/05/20 17:13:17;;;;;;;;;;;;;;;;;;6129044;23;19917;-93
2023/05/20 17:15:43;;;;;;;;;;;;;;;;;;6153587;23;19917;-94
2023/05/20 17:18:10;;;;;;;;;;;;;;;;;;6129638;23;19939;-94
2023/05/20 17:20:35;;;;;;;;;;;;;;;;;;6129888;23;20008;-93
2023/05/20 17:23:02;;;;;;;;;;;;;;;;;;6130315;23;19940;-95
2023/05/20 17:25:28;;;;;;;;;;;;;;;;;;6158251;23;19923;-94
2023/05/20 17:27:54;;;;;;;;;;;;;;;;;;6133499;23;19917;-94
2023/05/20 17:30:19;;;;;;;;;;;;;;;;;;6155231;23;19939;-94
2023/05/20 17:32:45;;;;;;;;;;;;;;;;;;6130508;23;19927;-93
2023/05/20 17:35:11;;;;;;;;;;;;;;;;;;6154269;23;20250;-95
2023/05/20 17:37:37;;;;;;;;;;;;;;;;;;6155910;23;20358;-94